Time;durP1;ratioP1;P1;durP2;ratioP2;P2;SDS_P1;SDS_P2;PMS_P1;PMS_P2;Temp;Humidity;BMP_temperature;BMP_pressure;BME280_temperature;BME280_humidity;BME280_pressure;Samples;Min_cycle;Max_cycle;Signal;HPM_P1;HPM_P2
2022/06/21 00:02:23;;;;;;;3.88;1.60;;;17.70;97.60;;;;;;4969671;28;20369;-72
2022/06/21 00:04:49;;;;;;;2.58;1.70;;;17.70;97.60;;;;;;4971525;28;20030;-72
2022/06/21 00:07:23;;;;;;;4.00;1.60;;;17.60;97.70;;;;;;4970111;28;20113;-72
2022/06/21 00:09:49;;;;;;;3.40;1.60;;;17.60;97.90;;;;;;4973150;28;20026;-72
2022/06/21 00:12:15;;;;;;;3.05;1.52;;;17.40;98.10;;;;;;4974408;28;20031;-72
2022/06/21 00:14:41;;;;;;;4.47;1.33;;;17.40;98.30;;;;;;4973375;28;20035;-71
2022/06/21 00:17:13;;;;;;;4.30;2.10;;;17.40;98.40;;;;;;4973542;28;20042;-71
2022/06/21 00:19:41;;;;;;;4.20;1.65;;;17.40;98.60;;;;;;4972436;28;20444;-71
2022/06/21 00:22:15;;;;;;;1.65;1.30;;;17.40;98.80;;;;;;4974454;28;20041;-72
2022/06/21 00:24:41;;;;;;;4.50;1.50;;;17.30;99.00;;;;;;4970064;28;20450;-71
2022/06/21 00:27:25;;;;;;;3.45;1.65;;;17.30;99.20;;;;;;4973207;28;20034;-72
2022/06/21 00:29:51;;;;;;;2.78;1.92;;;17.20;99.50;;;;;;4973240;28;20116;-71
2022/06/21 00:32:18;;;;;;;2.25;1.58;;;17.10;99.90;;;;;;4963883;28;20115;-72
2022/06/21 00:34:46;;;;;;;5.03;1.48;;;17.00;99.90;;;;;;4965871;28;20045;-71
2022/06/21 00:37:22;;;;;;;2.20;1.45;;;17.00;99.90;;;;;;4973028;28;20038;-71
2022/06/21 00:39:49;;;;;;;3.05;1.55;;;16.90;99.90;;;;;;4967908;28;20057;-71
2022/06/21 00:42:20;;;;;;;2.13;1.58;;;16.90;99.90;;;;;;4975699;28;20034;-71
2022/06/21 00:44:59;;;;;;;4.50;1.40;;;16.80;99.90;;;;;;4972896;28;20427;-72
2022/06/21 00:47:43;;;;;;;1.80;1.48;;;16.80;99.90;;;;;;4972230;28;20106;-71
2022/06/21 00:50:32;;;;;;;3.53;1.55;;;16.70;99.90;;;;;;4970369;28;20015;-72
2022/06/21 00:53:07;;;;;;;3.85;1.77;;;16.70;99.90;;;;;;4969611;28;20030;-71
2022/06/21 00:55:51;;;;;;;2.00;1.23;;;16.70;99.90;;;;;;4969378;28;20689;-71
2022/06/21 00:58:19;;;;;;;3.40;1.60;;;16.70;99.90;;;;;;4965996;28;20030;-70
2022/06/21 01:00:58;;;;;;;5.32;1.85;;;16.60;99.90;;;;;;4967157;28;20533;-72
2022/06/21 01:03:36;;;;;;;5.63;1.75;;;16.60;99.90;;;;;;4967047;28;20031;-72
2022/06/21 01:06:20;;;;;;;2.80;1.80;;;16.60;99.90;;;;;;4967112;28;20121;-70
2022/06/21 01:08:53;;;;;;;1.40;1.20;;;16.60;99.90;;;;;;4970775;28;20023;-72
2022/06/21 01:11:24;;;;;;;1.75;1.25;;;16.50;99.90;;;;;;4968855;28;20027;-71
2022/06/21 01:13:53;;;;;;;6.00;2.00;;;16.50;99.90;;;;;;4970295;28;20487;-71
2022/06/21 01:16:19;;;;;;;2.17;1.52;;;16.60;99.90;;;;;;4967220;28;20038;-71
2022/06/21 01:18:46;;;;;;;4.70;1.92;;;16.60;99.90;;;;;;4965496;28;20047;-71
2022/06/21 01:21:15;;;;;;;2.53;1.40;;;16.60;99.90;;;;;;4967017;28;20035;-72
2022/06/21 01:24:15;;;;;;;2.30;1.45;;;16.60;99.90;;;;;;4969495;28;20477;-72
2022/06/21 01:27:00;;;;;;;3.38;1.30;;;16.60;99.90;;;;;;4968746;28;20023;-72
2022/06/21 01:29:30;;;;;;;2.80;1.50;;;16.60;99.90;;;;;;4971971;28;20030;-71
2022/06/21 01:31:59;;;;;;;1.45;1.27;;;16.60;99.90;;;;;;4968396;28;20058;-71
2022/06/21 01:34:27;;;;;;;1.73;1.30;;;16.60;99.90;;;;;;4969822;28;20070;-71
2022/06/21 01:36:59;;;;;;;3.13;1.92;;;16.60;99.90;;;;;;4968802;28;20031;-71
2022/06/21 01:39:37;;;;;;;2.17;1.52;;;16.60;99.90;;;;;;4969779;28;20034;-71
2022/06/21 01:42:12;;;;;;;3.88;1.70;;;16.70;99.90;;;;;;4970286;28;20030;-71
2022/06/21 01:44:45;;;;;;;2.38;1.77;;;16.70;99.90;;;;;;4971853;28;20066;-71
2022/06/21 01:47:15;;;;;;;1.40;1.25;;;16.70;99.90;;;;;;4969683;28;20027;-72
2022/06/21 01:49:52;;;;;;;1.90;1.45;;;16.70;99.90;;;;;;4965974;28;20114;-71
2022/06/21 01:52:22;;;;;;;4.25;1.63;;;16.70;99.90;;;;;;4984222;28;20026;-72
2022/06/21 01:55:09;;;;;;;1.70;1.45;;;16.70;99.90;;;;;;4972833;28;20062;-72
2022/06/21 01:57:38;;;;;;;5.45;1.50;;;16.80;99.90;;;;;;4969647;28;20105;-71
2022/06/21 02:00:06;;;;;;;2.75;1.60;;;16.80;99.90;;;;;;4971639;28;20035;-72
2022/06/21 02:02:38;;;;;;;2.33;1.85;;;16.80;99.90;;;;;;4967473;28;20497;-72
2022/06/21 02:05:13;;;;;;;2.17;1.40;;;16.80;99.90;;;;;;4968015;28;20030;-72
2022/06/21 02:07:46;;;;;;;4.68;1.65;;;16.80;99.90;;;;;;4963232;28;20022;-71
2022/06/21 02:10:25;;;;;;;3.03;1.40;;;16.80;99.90;;;;;;4967250;28;20055;-70
2022/06/21 02:13:04;;;;;;;2.13;1.20;;;16.80;99.90;;;;;;4969802;28;20282;-73
2022/06/21 02:15:39;;;;;;;2.75;1.58;;;16.70;99.90;;;;;;4970171;28;20034;-72
2022/06/21 02:18:11;;;;;;;6.40;1.65;;;16.70;99.90;;;;;;4967126;28;20049;-71
2022/06/21 02:21:05;;;;;;;2.70;1.58;;;16.60;99.90;;;;;;4982644;28;20037;-72
2022/06/21 02:23:31;;;;;;;3.35;1.52;;;16.50;99.90;;;;;;4969696;28;20074;-71
2022/06/21 02:25:58;;;;;;;2.35;1.40;;;16.50;99.90;;;;;;4966452;28;20043;-72
2022/06/21 02:28:28;;;;;;;2.50;1.30;;;16.40;99.90;;;;;;4967210;28;21021;-71
2022/06/21 02:30:56;;;;;;;2.83;1.48;;;16.30;99.90;;;;;;4967937;28;20439;-71
2022/06/21 02:33:25;;;;;;;1.85;1.45;;;16.30;99.90;;;;;;4968699;28;20027;-72
2022/06/21 02:36:01;;;;;;;1.77;1.10;;;16.30;99.90;;;;;;4967916;28;21185;-71
2022/06/21 02:38:54;;;;;;;4.07;1.27;;;16.20;99.90;;;;;;4966465;28;20046;-71
2022/06/21 02:41:33;;;;;;;3.22;1.17;;;16.30;99.90;;;;;;4968169;28;20041;-71
2022/06/21 02:44:09;;;;;;;2.67;1.35;;;16.20;99.90;;;;;;4968675;28;20034;-72
2022/06/21 02:46:40;;;;;;;1.48;1.27;;;16.10;99.90;;;;;;4970263;28;20030;-72
2022/06/21 02:49:34;;;;;;;2.42;1.33;;;16.00;99.90;;;;;;4973728;28;20035;-72
2022/06/21 02:52:15;;;;;;;1.70;1.30;;;16.10;99.90;;;;;;4974249;28;20022;-72
2022/06/21 02:55:08;;;;;;;2.92;1.50;;;16.00;99.90;;;;;;4969596;28;20145;-71
2022/06/21 02:57:41;;;;;;;3.58;1.30;;;15.90;99.90;;;;;;4960443;28;20023;-71
2022/06/21 03:00:14;;;;;;;3.65;1.38;;;15.90;99.90;;;;;;4975480;28;20030;-71
2022/06/21 03:02:40;;;;;;;3.60;1.35;;;15.90;99.90;;;;;;4969073;28;20146;-71
2022/06/21 03:05:14;;;;;;;2.05;1.63;;;15.90;99.90;;;;;;4964615;28;20106;-71
2022/06/21 03:07:43;;;;;;;2.83;1.52;;;15.90;99.90;;;;;;4968414;28;20154;-71
2022/06/21 03:10:24;;;;;;;2.40;1.48;;;15.80;99.90;;;;;;4976437;28;20045;-71
2022/06/21 03:12:55;;;;;;;1.60;1.10;;;15.80;99.90;;;;;;4976785;28;20126;-71
2022/06/21 03:15:21;;;;;;;1.45;1.20;;;15.70;99.90;;;;;;4971461;28;20511;-71
2022/06/21 03:17:53;;;;;;;3.47;1.45;;;15.70;99.90;;;;;;4975586;28;20030;-72
2022/06/21 03:20:20;;;;;;;1.38;1.25;;;15.70;99.90;;;;;;4970604;28;20027;-71
2022/06/21 03:22:48;;;;;;;5.18;1.77;;;15.60;99.90;;;;;;4971503;28;20027;-71
2022/06/21 03:25:32;;;;;;;1.95;1.33;;;15.60;99.90;;;;;;4973263;28;20023;-71
2022/06/21 03:28:01;;;;;;;3.47;1.30;;;15.50;99.90;;;;;;4974652;28;20035;-71
2022/06/21 03:30:34;;;;;;;2.88;1.38;;;15.50;99.90;;;;;;4970800;28;20081;-70
2022/06/21 03:33:03;;;;;;;2.25;1.65;;;15.50;99.90;;;;;;4985898;28;20042;-70
2022/06/21 03:35:33;;;;;;;5.30;1.52;;;15.50;99.90;;;;;;4973268;28;20035;-71
2022/06/21 03:37:59;;;;;;;2.10;1.70;;;15.60;99.90;;;;;;4972335;28;20469;-71
2022/06/21 03:43:53;;;;;;;4.47;1.77;;;15.60;99.90;;;;;;4974761;28;20507;-72
2022/06/21 03:46:24;;;;;;;4.22;1.80;;;15.60;99.90;;;;;;4978992;28;20106;-72
2022/06/21 03:49:03;;;;;;;1.77;1.40;;;15.70;99.90;;;;;;4971659;28;20728;-72
2022/06/21 03:51:37;;;;;;;1.73;1.20;;;15.70;99.90;;;;;;4972804;28;20033;-72
2022/06/21 03:54:12;;;;;;;3.05;1.52;;;15.80;99.90;;;;;;4963962;28;20161;-72
2022/06/21 03:56:52;;;;;;;2.33;1.33;;;15.80;99.90;;;;;;4967182;28;20035;-70
2022/06/21 03:59:36;;;;;;;2.58;1.38;;;15.90;99.90;;;;;;4965127;28;20404;-71
2022/06/21 04:02:27;;;;;;;5.03;1.88;;;15.90;99.90;;;;;;4984897;28;20031;-71
2022/06/21 04:05:05;;;;;;;3.17;1.50;;;15.90;99.90;;;;;;4967654;28;20476;-71
2022/06/21 04:07:41;;;;;;;3.38;1.40;;;15.90;99.90;;;;;;4970843;28;20383;-71
2022/06/21 04:10:43;;;;;;;2.22;1.30;;;15.90;99.90;;;;;;4983599;28;20029;-71
2022/06/21 04:13:32;;;;;;;2.88;1.42;;;15.90;99.90;;;;;;4971503;28;20027;-71
2022/06/21 04:16:14;;;;;;;2.55;1.40;;;15.80;99.90;;;;;;4970036;28;20042;-70
2022/06/21 04:18:52;;;;;;;2.42;1.58;;;15.80;99.90;;;;;;4972322;28;20023;-70
2022/06/21 04:22:03;;;;;;;2.20;1.60;;;15.80;99.90;;;;;;4967887;28;20031;-71
2022/06/21 04:24:50;;;;;;;3.88;1.95;;;15.80;99.90;;;;;;4966616;28;20100;-71
2022/06/21 04:27:26;;;;;;;5.53;1.48;;;15.90;99.90;;;;;;4968465;28;20050;-70
2022/06/21 04:30:20;;;;;;;6.03;1.85;;;15.90;99.90;;;;;;4969142;28;20048;-70
2022/06/21 04:32:48;;;;;;;;;;;16.00;99.90;;;;;;4969430;28;20023;-70
2022/06/21 04:35:16;;;;;;;3.63;1.73;;;16.10;99.90;;;;;;4968236;28;20012;-70
2022/06/21 04:37:49;;;;;;;2.63;2.13;;;16.20;99.90;;;;;;4964156;28;20054;-70
2022/06/21 04:40:32;;;;;;;3.30;1.85;;;16.30;99.90;;;;;;4962834;28;20031;-70
2022/06/21 04:43:11;;;;;;;3.53;1.60;;;16.50;99.90;;;;;;4966290;28;20600;-70
2022/06/21 04:45:46;;;;;;;6.90;2.10;;;16.60;99.90;;;;;;4963576;28;20025;-69
2022/06/21 04:48:54;;;;;;;5.00;1.63;;;16.80;99.90;;;;;;4966492;28;20085;-69
2022/06/21 04:51:26;;;;;;;3.45;1.80;;;17.00;99.90;;;;;;4966538;28;20040;-72
2022/06/21 04:53:55;;;;;;;2.67;1.45;;;17.30;99.90;;;;;;4958332;28;20054;-72
2022/06/21 04:56:30;;;;;;;4.93;1.90;;;17.50;99.90;;;;;;4968499;28;20054;-72
2022/06/21 04:58:56;;;;;;;3.42;1.83;;;17.60;98.40;;;;;;4970126;28;20077;-70
2022/06/21 05:01:37;;;;;;;3.40;1.58;;;17.70;96.70;;;;;;4969715;28;20041;-70
2022/06/21 05:04:12;;;;;;;3.47;1.58;;;17.80;95.50;;;;;;4966433;28;20054;-70
2022/06/21 05:06:39;;;;;;;5.00;1.30;;;17.80;93.60;;;;;;4961204;28;22120;-70
2022/06/21 05:09:05;;;;;;;1.83;1.30;;;17.80;92.20;;;;;;4963475;28;20080;-70
2022/06/21 05:11:32;;;;;;;2.08;1.10;;;17.80;92.60;;;;;;4969884;28;20106;-71
2022/06/21 05:13:59;;;;;;;3.45;1.10;;;17.90;92.10;;;;;;4966903;28;20039;-70
2022/06/21 05:16:35;;;;;;;6.28;1.88;;;17.90;91.20;;;;;;4964626;28;20038;-70
2022/06/21 05:19:12;;;;;;;4.20;1.30;;;17.90;91.20;;;;;;4958476;28;20031;-70
2022/06/21 05:21:52;;;;;;;2.70;1.30;;;17.90;90.50;;;;;;4955304;28;20030;-71
2022/06/21 05:24:19;;;;;;;3.58;1.08;;;17.90;90.20;;;;;;4963317;28;20077;-71
2022/06/21 05:27:07;;;;;;;5.32;1.45;;;17.90;89.10;;;;;;4974814;28;20014;-70
2022/06/21 05:30:00;;;;;;;4.82;1.65;;;17.90;88.80;;;;;;4965100;28;20023;-71
2022/06/21 05:32:31;;;;;;;4.18;1.30;;;17.90;88.20;;;;;;4958166;28;20031;-70
2022/06/21 05:35:08;;;;;;;4.22;1.45;;;17.90;87.70;;;;;;4959813;28;20043;-70
2022/06/21 05:37:46;;;;;;;3.10;1.30;;;17.80;87.50;;;;;;4969544;28;20034;-72
2022/06/21 05:40:23;;;;;;;9.73;1.80;;;17.80;87.10;;;;;;4959534;28;20050;-71
2022/06/21 05:42:49;;;;;;;3.05;1.50;;;17.90;86.90;;;;;;4968142;28;20069;-69
2022/06/21 05:45:18;;;;;;;4.47;1.25;;;17.90;87.40;;;;;;4968254;28;20035;-70
2022/06/21 05:47:54;;;;;;;6.18;1.42;;;17.90;86.20;;;;;;4961446;28;20543;-70
2022/06/21 05:50:27;;;;;;;3.90;1.17;;;18.10;85.60;;;;;;4963567;28;20033;-70
2022/06/21 05:52:55;;;;;;;2.50;1.17;;;18.20;84.80;;;;;;4967266;28;20029;-70
2022/06/21 05:55:27;;;;;;;3.88;1.00;;;18.40;84.40;;;;;;4964113;28;20546;-70
2022/06/21 05:57:54;;;;;;;3.75;1.60;;;18.60;83.60;;;;;;4956735;28;20081;-71
2022/06/21 06:00:39;;;;;;;2.92;1.60;;;18.80;82.30;;;;;;4965503;28;20033;-70
2022/06/21 06:03:30;;;;;;;8.05;1.13;;;18.90;82.90;;;;;;4968891;28;20057;-70
2022/06/21 06:05:59;;;;;;;2.50;1.20;;;19.10;81.60;;;;;;4945183;28;20106;-69
2022/06/21 06:08:38;;;;;;;3.13;1.20;;;19.20;81.50;;;;;;4966762;28;20033;-70
2022/06/21 06:11:07;;;;;;;1.83;1.13;;;19.40;81.00;;;;;;4965830;28;20039;-70
2022/06/21 06:13:38;;;;;;;3.78;1.42;;;19.50;80.60;;;;;;4964895;28;20546;-70
2022/06/21 06:16:27;;;;;;;3.40;1.25;;;19.70;80.50;;;;;;4964536;28;20089;-70
2022/06/21 06:19:03;;;;;;;1.88;1.10;;;19.70;79.10;;;;;;4970661;28;20093;-70
2022/06/21 06:21:38;;;;;;;4.03;1.30;;;19.70;78.60;;;;;;4962585;28;20490;-70
2022/06/21 06:24:12;;;;;;;3.20;1.23;;;19.90;78.40;;;;;;4963908;28;20022;-70
2022/06/21 06:26:41;;;;;;;2.80;1.42;;;20.00;77.50;;;;;;4961905;28;20026;-70
2022/06/21 06:29:18;;;;;;;3.97;1.38;;;20.10;78.20;;;;;;4967130;28;20027;-70
2022/06/21 06:32:14;;;;;;;5.70;1.40;;;20.30;78.10;;;;;;4962109;28;20097;-70
2022/06/21 06:34:44;;;;;;;4.90;1.40;;;20.40;77.60;;;;;;4966504;28;20058;-70
2022/06/21 06:37:25;;;;;;;3.25;1.60;;;20.50;77.60;;;;;;4963736;28;20034;-69
2022/06/21 06:39:51;;;;;;;2.80;1.65;;;20.50;77.20;;;;;;4963616;28;20027;-71
2022/06/21 06:42:24;;;;;;;3.60;1.65;;;20.50;78.00;;;;;;4966942;28;20483;-69
2022/06/21 06:44:59;;;;;;;4.55;2.10;;;20.50;78.10;;;;;;4964680;28;20046;-70
2022/06/21 06:47:39;;;;;;;3.83;1.40;;;20.50;78.50;;;;;;4970165;28;20026;-70
2022/06/21 06:50:16;;;;;;;4.28;1.27;;;20.60;84.40;;;;;;4969039;28;20033;-70
2022/06/21 06:53:01;;;;;;;3.80;1.90;;;20.40;85.30;;;;;;4975182;28;20514;-70
2022/06/21 06:55:44;;;;;;;3.63;1.80;;;20.20;85.60;;;;;;4989635;28;20034;-73
2022/06/21 06:58:25;;;;;;;2.88;1.85;;;20.20;87.20;;;;;;4972934;28;20027;-70
2022/06/21 07:00:58;;;;;;;4.28;2.10;;;20.30;85.20;;;;;;4967438;28;20387;-70
2022/06/21 07:03:37;;;;;;;2.22;1.60;;;20.20;83.10;;;;;;4987205;28;20105;-69
2022/06/21 07:06:34;;;;;;;6.70;1.85;;;20.30;82.00;;;;;;4970978;28;20042;-69
2022/06/21 07:09:10;;;;;;;3.95;1.70;;;20.30;82.20;;;;;;4968170;28;20041;-69
2022/06/21 07:11:39;;;;;;;3.33;1.75;;;20.40;81.00;;;;;;4962190;28;20022;-70
2022/06/21 07:14:15;;;;;;;4.03;1.92;;;20.40;81.60;;;;;;4969884;28;20054;-69
2022/06/21 07:16:42;;;;;;;4.07;1.50;;;20.50;82.00;;;;;;4986608;28;20023;-71
2022/06/21 07:19:10;;;;;;;4.85;1.73;;;20.60;81.70;;;;;;4969217;28;20035;-71
2022/06/21 07:21:39;;;;;;;4.30;2.03;;;20.70;81.30;;;;;;4968871;28;20030;-71
2022/06/21 07:24:17;;;;;;;3.22;1.90;;;20.70;80.60;;;;;;4974414;28;20395;-70
2022/06/21 07:27:03;;;;;;;4.32;1.60;;;20.80;80.70;;;;;;4970087;28;20026;-70
2022/06/21 07:29:42;;;;;;;5.40;2.03;;;20.90;80.70;;;;;;4978041;28;20026;-70
2022/06/21 07:32:12;;;;;;;5.10;2.30;;;20.90;80.00;;;;;;4971557;28;20125;-70
2022/06/21 07:35:09;;;;;;;3.55;1.88;;;20.90;80.30;;;;;;4969296;28;20038;-71
2022/06/21 07:37:47;;;;;;;10.55;2.47;;;20.90;80.20;;;;;;4970485;28;20126;-70
2022/06/21 07:40:21;;;;;;;4.10;1.90;;;20.90;80.00;;;;;;4989014;28;20097;-70
2022/06/21 07:43:02;;;;;;;3.00;1.55;;;20.90;80.10;;;;;;4973857;28;20170;-70
2022/06/21 07:45:28;;;;;;;4.72;1.60;;;20.90;80.50;;;;;;4973384;28;20026;-70
2022/06/21 07:48:07;;;;;;;3.05;1.83;;;20.90;80.00;;;;;;4970921;28;20081;-71
2022/06/21 07:50:37;;;;;;;3.45;1.75;;;20.70;80.70;;;;;;4973981;28;20031;-70
2022/06/21 07:53:15;;;;;;;2.20;1.60;;;20.80;80.90;;;;;;4968450;28;20495;-70
2022/06/21 07:55:50;;;;;;;3.85;1.83;;;20.80;80.50;;;;;;4971385;28;20494;-70
2022/06/21 07:58:32;;;;;;;3.60;2.05;;;20.90;80.40;;;;;;4960069;28;20431;-70
2022/06/21 08:06:46;;;;;;;2.83;1.88;;;21.00;80.40;;;;;;4967609;28;20482;-70
2022/06/21 08:09:37;;;;;;;2.60;1.50;;;21.10;80.00;;;;;;4957726;28;20023;-71
2022/06/21 08:12:03;;;;;;;3.35;1.60;;;21.20;80.10;;;;;;4968397;28;20029;-69
2022/06/21 08:14:31;;;;;;;3.42;1.55;;;21.30;79.20;;;;;;4964673;28;20093;-69
2022/06/21 08:17:13;;;;;;;3.70;1.30;;;21.20;78.80;;;;;;4965734;28;20027;-69
2022/06/21 08:19:58;;;;;;;2.47;1.40;;;21.20;78.70;;;;;;4961578;28;20026;-69
2022/06/21 08:22:45;;;;;;;2.45;1.25;;;21.30;78.90;;;;;;4966390;28;20519;-69
2022/06/21 08:25:18;;;;;;;2.28;1.40;;;21.40;78.40;;;;;;4967411;28;20420;-69
2022/06/21 08:28:01;;;;;;;2.20;1.33;;;21.40;78.70;;;;;;4963427;28;20026;-70
2022/06/21 08:30:35;;;;;;;4.05;1.40;;;21.50;78.30;;;;;;4955905;28;20035;-67
2022/06/21 08:33:12;;;;;;;3.63;1.38;;;21.60;78.10;;;;;;4966309;28;20125;-69
2022/06/21 08:35:47;;;;;;;3.05;1.50;;;21.70;78.00;;;;;;4969495;28;20038;-69
2022/06/21 08:38:37;;;;;;;2.28;1.40;;;21.70;77.70;;;;;;4966948;28;20089;-69
2022/06/21 08:41:55;;;;;;;3.33;1.92;;;21.80;77.30;;;;;;4970037;28;20031;-69
2022/06/21 08:44:33;;;;;;;3.83;1.27;;;22.00;77.10;;;;;;4970787;28;20025;-68
2022/06/21 08:47:46;;;;;;;3.15;1.52;;;22.10;76.70;;;;;;4971420;28;20027;-68
2022/06/21 08:50:36;;;;;;;3.45;1.50;;;22.20;76.60;;;;;;4965537;28;20050;-69
2022/06/21 08:53:17;;;;;;;6.80;2.38;;;22.20;76.60;;;;;;4960247;28;20094;-68
2022/06/21 08:56:12;;;;;;;3.20;1.42;;;22.20;76.60;;;;;;4971168;28;20046;-68
2022/06/21 08:58:57;;;;;;;3.50;1.45;;;22.00;76.40;;;;;;4987835;28;20396;-68
2022/06/21 09:01:33;;;;;;;2.83;1.30;;;21.80;76.60;;;;;;4967517;28;20027;-68
2022/06/21 09:04:08;;;;;;;1.67;1.23;;;21.90;77.20;;;;;;4970346;28;20035;-68
2022/06/21 09:06:58;;;;;;;4.78;1.63;;;21.90;77.10;;;;;;4969916;28;20023;-68
2022/06/21 09:09:36;;;;;;;3.75;1.50;;;22.10;77.10;;;;;;4971558;28;20027;-68
2022/06/21 09:12:05;;;;;;;3.63;1.40;;;22.20;77.20;;;;;;4967187;28;20026;-68
2022/06/21 09:14:30;;;;;;;5.18;1.98;;;22.10;77.30;;;;;;4963554;28;20098;-68
2022/06/21 09:17:02;;;;;;;4.15;1.63;;;22.20;77.30;;;;;;4971649;28;20114;-68
2022/06/21 09:20:09;;;;;;;6.32;1.80;;;22.20;77.50;;;;;;4963921;28;20035;-68
2022/06/21 09:23:03;;;;;;;4.80;2.17;;;22.30;77.80;;;;;;4966552;28;20492;-68
2022/06/21 09:25:45;;;;;;;4.32;1.95;;;22.40;78.00;;;;;;4965896;28;20042;-69
2022/06/21 09:28:37;;;;;;;5.47;1.65;;;22.50;78.20;;;;;;4971876;28;20054;-69
2022/06/21 09:31:10;;;;;;;2.25;1.75;;;22.60;78.90;;;;;;4965563;28;20031;-70
2022/06/21 09:33:47;;;;;;;3.17;2.13;;;22.70;79.00;;;;;;4968706;28;20085;-69
2022/06/21 09:36:58;;;;;;;2.95;2.08;;;22.70;79.00;;;;;;4964812;28;20042;-69
2022/06/21 09:39:36;;;;;;;3.58;2.00;;;22.70;79.40;;;;;;4939685;28;20065;-69
2022/06/21 09:42:14;;;;;;;3.22;2.08;;;22.70;79.80;;;;;;4965949;28;20029;-70
2022/06/21 09:45:00;;;;;;;3.17;2.00;;;22.80;80.20;;;;;;4966901;28;20105;-69
2022/06/21 09:47:43;;;;;;;3.72;2.17;;;22.70;79.90;;;;;;4963948;28;20019;-70
2022/06/21 09:50:38;;;;;;;3.92;2.10;;;22.80;80.10;;;;;;4965376;28;20037;-69
2022/06/21 09:53:06;;;;;;;;;;;22.90;80.40;;;;;;4966373;28;20396;-70
2022/06/21 09:55:41;;;;;;;2.75;2.00;;;22.80;80.70;;;;;;4966847;28;20001;-70
2022/06/21 09:58:10;;;;;;;4.50;2.13;;;22.80;80.80;;;;;;4965183;28;20759;-69
2022/06/21 10:00:51;;;;;;;3.97;2.72;;;22.90;81.00;;;;;;4964821;28;20400;-69
2022/06/21 10:03:45;;;;;;;3.80;2.35;;;23.00;81.40;;;;;;4966586;28;20096;-69
2022/06/21 10:06:15;;;;;;;5.60;2.20;;;23.00;81.50;;;;;;4960794;28;20074;-69
2022/06/21 10:09:14;;;;;;;4.78;2.50;;;23.00;81.70;;;;;;4962450;28;20035;-70
2022/06/21 10:12:17;;;;;;;7.68;3.20;;;23.10;81.70;;;;;;4958741;28;20034;-71
2022/06/21 10:15:28;;;;;;;6.13;2.70;;;23.10;81.70;;;;;;4959970;28;20053;-70
2022/06/21 10:17:57;;;;;;;4.50;2.40;;;23.20;81.70;;;;;;4961473;28;20046;-69
2022/06/21 10:20:37;;;;;;;4.30;2.72;;;23.30;81.50;;;;;;4964288;28;20488;-69
2022/06/21 10:23:14;;;;;;;4.50;2.35;;;23.30;81.70;;;;;;4962636;28;20480;-70
2022/06/21 10:26:01;;;;;;;5.18;2.78;;;23.40;81.30;;;;;;4966275;28;20116;-69
2022/06/21 10:28:26;;;;;;;3.00;2.13;;;23.40;81.70;;;;;;4967551;28;20110;-70
2022/06/21 10:31:10;;;;;;;7.40;3.03;;;23.40;80.80;;;;;;4965581;28;20106;-72
2022/06/21 10:33:59;;;;;;;4.47;2.50;;;23.50;80.80;;;;;;4966177;28;20030;-71
2022/06/21 10:36:40;;;;;;;4.18;1.92;;;23.40;81.30;;;;;;4966975;28;20034;-70
2022/06/21 10:39:19;;;;;;;4.45;3.30;;;23.50;81.40;;;;;;4962666;28;20170;-71
2022/06/21 10:44:55;;;;;;;3.80;2.45;;;23.70;81.20;;;;;;4964191;28;20074;-71
2022/06/21 10:47:32;;;;;;;3.28;2.25;;;23.80;80.90;;;;;;4967147;28;20624;-71
2022/06/21 10:50:07;;;;;;;5.05;2.33;;;23.90;80.70;;;;;;4961934;28;20624;-71
2022/06/21 10:52:42;;;;;;;3.88;2.28;;;24.00;79.70;;;;;;4969966;28;20034;-71
2022/06/21 10:55:36;;;;;;;3.92;2.22;;;24.10;79.90;;;;;;4968231;28;20117;-70
2022/06/21 10:58:16;;;;;;;5.28;2.97;;;24.10;79.90;;;;;;4959540;28;20038;-70
2022/06/21 11:01:31;;;;;;;4.00;2.47;;;24.20;80.20;;;;;;4967661;28;20027;-70
2022/06/21 11:04:11;;;;;;;7.07;2.95;;;24.20;80.70;;;;;;4960276;28;20062;-71
2022/06/21 11:07:02;;;;;;;3.60;2.30;;;24.30;81.20;;;;;;4962409;28;20089;-71
2022/06/21 11:10:00;;;;;;;4.40;2.28;;;24.30;81.00;;;;;;4958240;28;20035;-71
2022/06/21 11:12:53;;;;;;;8.43;2.60;;;24.50;80.80;;;;;;4979444;28;20022;-71
2022/06/21 11:15:27;;;;;;;7.68;4.78;;;24.80;80.80;;;;;;4964779;28;20023;-72
2022/06/21 11:18:15;;;;;;;5.10;2.67;;;24.90;81.20;;;;;;4960380;28;20039;-71
2022/06/21 11:20:55;;;;;;;7.20;4.30;;;25.00;81.10;;;;;;4957271;28;20133;-70
2022/06/21 11:23:39;;;;;;;6.97;3.60;;;25.20;82.20;;;;;;4963311;28;20086;-71
2022/06/21 11:26:39;;;;;;;3.35;2.97;;;25.30;81.40;;;;;;4962786;28;20512;-72
2022/06/21 11:29:40;;;;;;;5.63;3.47;;;25.30;81.50;;;;;;4962155;28;20488;-72
2022/06/21 11:32:24;;;;;;;4.63;3.30;;;25.30;81.30;;;;;;4956748;28;20499;-72
2022/06/21 11:34:56;;;;;;;5.35;2.70;;;25.30;81.10;;;;;;4966200;28;20031;-72
2022/06/21 11:37:42;;;;;;;4.35;3.22;;;25.30;81.00;;;;;;4966254;28;20031;-71
2022/06/21 11:40:32;;;;;;;5.95;4.20;;;25.30;82.00;;;;;;4967145;28;20540;-72
2022/06/21 11:42:58;;;;;;;8.77;4.50;;;25.50;83.40;;;;;;4966754;28;20061;-71
2022/06/21 11:45:50;;;;;;;5.65;4.70;;;25.70;83.40;;;;;;4965494;28;20110;-73
2022/06/21 11:48:15;;;;;;;7.30;4.60;;;25.80;83.00;;;;;;4969045;28;21209;-72
2022/06/21 11:51:05;;;;;;;7.25;4.65;;;25.90;82.70;;;;;;4968193;28;20054;-72
2022/06/21 11:53:56;;;;;;;8.13;4.53;;;26.00;82.70;;;;;;4969867;28;20022;-72
2022/06/21 11:56:51;;;;;;;7.05;4.55;;;26.10;82.80;;;;;;4968743;28;20102;-72
2022/06/21 11:59:40;;;;;;;7.45;3.90;;;26.20;82.60;;;;;;4964488;28;20090;-72
2022/06/21 12:02:32;;;;;;;7.38;4.45;;;26.40;82.50;;;;;;4969550;28;20034;-71
2022/06/21 12:05:16;;;;;;;6.95;4.53;;;26.40;82.30;;;;;;4964794;28;20039;-71
2022/06/21 12:07:44;;;;;;;9.63;4.40;;;26.50;82.20;;;;;;4983329;28;20607;-71
2022/06/21 12:10:15;;;;;;;7.28;4.20;;;26.50;82.00;;;;;;4970217;28;20023;-72
2022/06/21 12:13:07;;;;;;;7.25;5.00;;;26.50;81.60;;;;;;4970929;28;20498;-72
2022/06/21 12:15:45;;;;;;;8.15;4.00;;;26.50;81.70;;;;;;4988247;28;20061;-73
2022/06/21 12:18:20;;;;;;;8.55;4.95;;;26.50;81.80;;;;;;4965454;28;20027;-72
2022/06/21 12:20:52;;;;;;;5.78;3.50;;;26.40;82.20;;;;;;4964237;28;20357;-72
2022/06/21 12:23:36;;;;;;;5.20;3.47;;;26.50;82.70;;;;;;4967599;28;20043;-73
2022/06/21 12:26:04;;;;;;;8.55;4.18;;;26.60;83.00;;;;;;4959637;28;20342;-72
2022/06/21 12:28:33;;;;;;;6.32;4.57;;;26.70;82.60;;;;;;4972738;28;20090;-72
2022/06/21 12:31:03;;;;;;;6.63;4.80;;;26.80;81.90;;;;;;4957379;28;20051;-73
2022/06/21 12:33:37;;;;;;;6.50;4.97;;;26.90;81.60;;;;;;4972119;28;20507;-73
2022/06/21 12:36:03;;;;;;;9.07;3.92;;;27.00;81.80;;;;;;4961023;28;20034;-73
2022/06/21 12:38:43;;;;;;;7.55;4.60;;;27.20;81.50;;;;;;4963976;28;20042;-73
2022/06/21 12:41:26;;;;;;;6.60;4.75;;;27.30;80.60;;;;;;4969099;28;20030;-72
2022/06/21 12:44:01;;;;;;;8.10;4.95;;;27.40;80.30;;;;;;4967864;28;20400;-73
2022/06/21 12:46:43;;;;;;;7.07;4.47;;;27.40;79.90;;;;;;4962388;28;20030;-74
2022/06/21 12:49:40;;;;;;;5.97;5.07;;;27.40;80.70;;;;;;4970636;28;20114;-73
2022/06/21 12:52:23;;;;;;;7.00;4.63;;;27.50;79.90;;;;;;4968248;28;20034;-73
2022/06/21 12:55:06;;;;;;;6.50;4.25;;;27.40;79.70;;;;;;4966949;28;20034;-72
2022/06/21 12:58:00;;;;;;;6.57;4.40;;;27.30;79.80;;;;;;4967838;28;20496;-74
2022/06/21 13:00:42;;;;;;;9.40;4.28;;;27.20;79.70;;;;;;4966020;28;20512;-75
2022/06/21 13:03:16;;;;;;;7.05;4.50;;;27.20;79.70;;;;;;4963934;28;20041;-74
2022/06/21 13:06:12;;;;;;;9.30;4.18;;;27.10;79.50;;;;;;4970815;28;20035;-75
2022/06/21 13:08:49;;;;;;;13.90;4.32;;;27.00;79.70;;;;;;4969890;28;20069;-72
2022/06/21 13:11:37;;;;;;;7.38;4.82;;;27.10;79.90;;;;;;4963615;28;20033;-71
2022/06/21 13:14:23;;;;;;;8.15;4.88;;;27.10;79.70;;;;;;4987998;28;20027;-71
2022/06/21 13:17:22;;;;;;;6.97;4.55;;;27.10;79.30;;;;;;4960809;28;20041;-72
2022/06/21 13:20:16;;;;;;;5.30;4.28;;;27.10;79.30;;;;;;4972389;28;20566;-74
2022/06/21 13:23:00;;;;;;;7.32;4.68;;;27.10;78.60;;;;;;4960262;28;21533;-72
2022/06/21 13:25:39;;;;;;;6.07;4.30;;;27.20;78.70;;;;;;4961928;28;20023;-73
2022/06/21 13:28:29;;;;;;;7.15;4.55;;;27.30;78.50;;;;;;4973559;28;20483;-72
2022/06/21 13:31:20;;;;;;;5.72;4.47;;;27.30;78.00;;;;;;4982780;28;20136;-73
2022/06/21 13:34:07;;;;;;;5.25;4.75;;;27.20;78.10;;;;;;4977392;28;20039;-74
2022/06/21 13:36:48;;;;;;;7.63;4.32;;;27.20;78.40;;;;;;4969154;28;20046;-74
2022/06/21 13:39:31;;;;;;;6.25;4.63;;;27.30;78.10;;;;;;4975102;28;20031;-75
2022/06/21 13:44:50;;;;;;;5.88;4.47;;;27.20;77.80;;;;;;4972547;28;20078;-75
2022/06/21 13:47:30;;;;;;;9.35;4.63;;;27.20;78.00;;;;;;4968876;28;20515;-77
2022/06/21 13:50:10;;;;;;;7.20;3.55;;;27.20;78.50;;;;;;4970645;28;20023;-74
2022/06/21 13:53:00;;;;;;;8.35;3.80;;;27.10;78.60;;;;;;4965143;28;20508;-75
2022/06/21 13:55:55;;;;;;;5.60;3.53;;;27.10;78.80;;;;;;4962431;28;20022;-74
2022/06/21 13:58:32;;;;;;;6.95;3.58;;;27.10;78.40;;;;;;4982593;28;20038;-73
2022/06/21 14:01:20;;;;;;;5.53;3.10;;;27.10;78.20;;;;;;4966206;28;20503;-73
2022/06/21 14:04:02;;;;;;;5.97;3.33;;;26.90;78.60;;;;;;4971566;28;20027;-74